Colebrook, Connecticut
Current Conditions -  °F | °C
As of 5:51 PM on Wednesday 22 Oct 2014 (Local Time) from KBDL Reporting Station
Light Rain Light Rain  
Wind Chill: 11°   Ceiling: 1800
Heat Index: 11°   Visibility: 4mi
Dew Point:   Wind: 18mph
Humidity: 83%   Direction: 20°NNE
Pressure: 29.87"   Gusts: NA
Location:  41.99°N, 73.1°W
Report Text: KBDL 222151Z 02016KT 4SM -RA BR BKN018 OVC023 11/08 A2987 RMK AO2 PK WND 02026/2112 SLP116 DZE00RAB00 P0000 T01110083
Loading
Personal Weather Stations






























Interactive Weather Map
Tropical Storm Tracking
New forecast layout! Learn more

10-Day Weather Forecast

Advertisements
Track Severe Weather on mobile